Time;durP1;ratioP1;P1;durP2;ratioP2;P2;SDS_P1;SDS_P2;PMS_P1;PMS_P2;Temp;Humidity;BMP_temperature;BMP_pressure;BME280_temperature;BME280_humidity;BME280_pressure;Samples;Min_cycle;Max_cycle;Signal;HPM_P1;HPM_P2
2021/09/06 00:00:06;;;;;;;8.97;6.90;;;20.90;97.60;;;;;;4988055;28;20464;-71
2021/09/06 00:02:37;;;;;;;9.17;6.60;;;20.90;97.80;;;;;;5005506;28;20220;-69
2021/09/06 00:05:06;;;;;;;9.60;8.00;;;20.90;97.80;;;;;;5004150;28;20479;-70
2021/09/06 00:07:33;;;;;;;10.07;8.00;;;20.90;97.70;;;;;;4989436;28;20448;-70
2021/09/06 00:10:13;;;;;;;10.50;7.80;;;20.80;97.60;;;;;;4987564;28;20484;-70
2021/09/06 00:12:39;;;;;;;10.10;8.73;;;20.80;97.60;;;;;;4989379;28;20460;-70
2021/09/06 00:15:05;;;;;;;10.73;7.47;;;20.80;97.70;;;;;;5003514;28;20844;-70
2021/09/06 00:17:31;;;;;;;8.97;6.90;;;20.80;97.70;;;;;;4997716;28;20232;-69
2021/09/06 00:19:56;;;;;;;9.67;7.33;;;20.80;97.70;;;;;;4987790;28;20468;-70
2021/09/06 00:22:22;;;;;;;8.77;7.37;;;20.80;97.70;;;;;;4998851;28;20224;-70
2021/09/06 00:24:47;;;;;;;9.30;7.50;;;20.70;97.60;;;;;;4997090;28;20221;-70
2021/09/06 00:27:13;;;;;;;13.83;7.10;;;20.80;97.70;;;;;;4993193;28;20217;-70
2021/09/06 00:29:39;;;;;;;11.97;8.53;;;20.70;97.70;;;;;;4990466;28;20213;-69
2021/09/06 00:32:05;;;;;;;9.90;7.67;;;20.70;97.80;;;;;;4971351;28;20833;-70
2021/09/06 00:34:31;;;;;;;9.77;8.63;;;20.70;97.80;;;;;;4990513;28;20244;-69
2021/09/06 00:36:56;;;;;;;9.27;7.60;;;20.60;97.80;;;;;;4977480;28;20468;-70
2021/09/06 00:39:22;;;;;;;8.97;7.57;;;20.60;97.80;;;;;;5008124;28;20217;-69
2021/09/06 00:41:48;;;;;;;9.13;7.73;;;20.60;97.90;;;;;;4987422;28;20479;-71
2021/09/06 00:44:14;;;;;;;8.30;6.73;;;20.60;97.90;;;;;;5023848;28;20228;-70
2021/09/06 00:46:45;;;;;;;8.33;7.10;;;20.60;97.90;;;;;;5008481;28;20267;-69
2021/09/06 00:49:10;;;;;;;8.83;7.60;;;20.50;97.90;;;;;;5004472;28;20510;-69
2021/09/06 00:51:36;;;;;;;8.80;7.00;;;20.50;98.10;;;;;;5008691;28;20467;-70
2021/09/06 00:54:02;;;;;;;9.57;8.13;;;20.50;98.00;;;;;;4991025;28;20304;-69
2021/09/06 00:56:28;;;;;;;9.27;7.67;;;20.50;98.20;;;;;;5008666;28;20217;-70
2021/09/06 00:58:54;;;;;;;10.40;8.73;;;20.40;98.20;;;;;;5008603;28;20695;-70
2021/09/06 01:01:20;;;;;;;10.53;7.70;;;20.40;98.10;;;;;;4990823;28;20449;-70
2021/09/06 01:03:45;;;;;;;7.73;6.63;;;20.40;98.20;;;;;;5008988;28;20220;-70
2021/09/06 01:06:33;;;;;;;11.00;8.20;;;20.40;98.30;;;;;;4994619;28;20284;-69
2021/09/06 01:09:15;;;;;;;7.90;6.90;;;20.40;98.30;;;;;;4994855;28;20447;-69
2021/09/06 01:11:53;;;;;;;9.60;8.30;;;20.30;98.40;;;;;;5001921;28;20515;-70
2021/09/06 01:14:26;;;;;;;10.57;7.87;;;20.30;98.40;;;;;;5008577;28;20502;-69
2021/09/06 01:16:52;;;;;;;11.03;7.73;;;20.30;98.50;;;;;;4990972;28;20848;-70
2021/09/06 01:19:18;;;;;;;9.63;7.63;;;20.30;98.40;;;;;;4992862;28;20304;-69
2021/09/06 01:21:45;;;;;;;9.43;7.50;;;20.30;98.40;;;;;;4996897;28;20998;-70
2021/09/06 01:24:29;;;;;;;8.10;7.30;;;20.30;98.50;;;;;;5027555;28;20575;-69
2021/09/06 01:26:59;;;;;;;7.33;6.63;;;20.20;98.50;;;;;;4993886;28;20889;-70
2021/09/06 01:29:26;;;;;;;9.50;7.40;;;20.20;98.60;;;;;;5007907;28;20460;-69
2021/09/06 01:31:52;;;;;;;9.60;7.40;;;20.20;98.60;;;;;;4990085;28;20468;-70
2021/09/06 01:34:19;;;;;;;10.73;8.27;;;20.20;98.70;;;;;;5007867;28;20538;-70
2021/09/06 01:36:48;;;;;;;9.33;7.00;;;20.20;98.70;;;;;;4990560;28;20460;-70
2021/09/06 01:39:14;;;;;;;9.17;6.90;;;20.20;98.80;;;;;;4989764;28;20456;-70
2021/09/06 01:41:40;;;;;;;8.80;6.90;;;20.10;99.00;;;;;;4991662;28;20217;-69
2021/09/06 01:44:07;;;;;;;11.43;8.30;;;20.00;99.20;;;;;;4989420;28;20229;-69
2021/09/06 01:46:35;;;;;;;8.67;7.33;;;20.00;99.00;;;;;;4992173;28;20467;-68
2021/09/06 01:49:03;;;;;;;10.03;7.53;;;20.00;99.10;;;;;;5006249;28;20221;-69
2021/09/06 01:51:28;;;;;;;9.77;7.90;;;20.00;99.10;;;;;;5007455;28;20479;-69
2021/09/06 01:53:55;;;;;;;9.17;7.97;;;20.00;99.10;;;;;;5005577;28;20344;-70
2021/09/06 01:56:22;;;;;;;9.53;6.80;;;20.00;99.10;;;;;;5003311;28;20550;-69
2021/09/06 01:58:48;;;;;;;11.90;7.60;;;20.00;99.00;;;;;;5025992;28;20467;-71
2021/09/06 02:01:17;;;;;;;7.70;6.80;;;20.00;98.90;;;;;;5020136;28;20456;-70
2021/09/06 02:03:43;;;;;;;9.40;6.73;;;20.00;99.40;;;;;;4991398;28;20535;-69
2021/09/06 02:06:11;;;;;;;11.80;8.13;;;19.90;98.90;;;;;;4990199;28;20464;-70
2021/09/06 02:08:44;;;;;;;9.67;7.77;;;19.90;99.00;;;;;;4986550;28;20465;-70
2021/09/06 02:11:10;;;;;;;9.83;7.20;;;19.90;99.00;;;;;;5014246;28;20455;-70
2021/09/06 02:13:35;;;;;;;10.20;8.30;;;19.90;99.40;;;;;;5004685;28;20254;-69
2021/09/06 02:16:02;;;;;;;7.87;6.97;;;19.90;99.00;;;;;;5021520;28;20230;-69
2021/09/06 02:18:30;;;;;;;12.43;7.70;;;19.90;99.00;;;;;;5005822;28;20535;-69
2021/09/06 02:20:57;;;;;;;11.00;8.63;;;19.80;98.90;;;;;;4985785;28;20962;-69
2021/09/06 02:23:24;;;;;;;10.57;7.57;;;19.90;99.00;;;;;;5009415;28;21091;-70
2021/09/06 02:25:53;;;;;;;13.20;7.10;;;19.80;98.90;;;;;;5002152;28;20464;-70
2021/09/06 02:28:19;;;;;;;10.90;7.03;;;19.80;98.90;;;;;;4991079;28;20550;-69
2021/09/06 02:30:46;;;;;;;10.30;7.63;;;19.80;99.00;;;;;;5007617;28;20524;-69
2021/09/06 02:33:17;;;;;;;10.70;7.50;;;19.70;98.90;;;;;;4991289;28;20452;-71
2021/09/06 02:36:01;;;;;;;11.20;7.57;;;19.70;98.80;;;;;;5005807;28;20522;-70
2021/09/06 02:38:29;;;;;;;9.17;7.40;;;19.70;98.90;;;;;;4988348;28;20465;-70
2021/09/06 02:40:54;;;;;;;10.87;7.37;;;19.70;98.90;;;;;;5004668;28;20471;-70
2021/09/06 02:43:20;;;;;;;8.60;6.60;;;19.60;98.90;;;;;;4990173;28;20697;-70
2021/09/06 02:45:47;;;;;;;11.57;7.83;;;19.60;98.90;;;;;;4989995;28;20538;-70
2021/09/06 02:48:12;;;;;;;9.80;7.37;;;19.60;98.90;;;;;;4995103;28;20499;-69
2021/09/06 02:50:38;;;;;;;11.20;7.77;;;19.60;98.90;;;;;;5006570;28;20292;-69
2021/09/06 02:53:06;;;;;;;11.27;8.00;;;19.60;98.90;;;;;;5004181;28;24931;-69
2021/09/06 02:55:32;;;;;;;11.87;8.33;;;19.50;99.00;;;;;;5012119;28;20455;-69
2021/09/06 02:57:59;;;;;;;10.50;7.63;;;19.50;99.00;;;;;;5008887;28;20290;-70
2021/09/06 03:00:25;;;;;;;11.43;7.90;;;19.50;99.00;;;;;;5010389;28;20547;-69
2021/09/06 03:02:52;;;;;;;7.77;6.70;;;19.40;98.90;;;;;;4988484;28;20491;-70
2021/09/06 03:05:18;;;;;;;9.00;7.00;;;19.40;98.90;;;;;;5004976;28;20528;-69
2021/09/06 03:07:49;;;;;;;8.43;7.40;;;19.40;99.30;;;;;;4989225;28;20455;-70
2021/09/06 03:10:15;;;;;;;12.23;7.67;;;19.40;98.90;;;;;;4990648;28;20456;-69
2021/09/06 03:12:40;;;;;;;9.63;6.80;;;19.40;98.90;;;;;;5005393;28;20248;-69
2021/09/06 03:15:06;;;;;;;11.80;7.50;;;19.30;98.90;;;;;;4988054;28;20213;-69
2021/09/06 03:17:33;;;;;;;11.00;7.80;;;19.30;98.90;;;;;;4989339;28;20212;-69
2021/09/06 03:19:59;;;;;;;10.33;7.43;;;19.30;98.90;;;;;;5000430;28;20460;-70
2021/09/06 03:22:26;;;;;;;10.73;8.17;;;19.30;98.90;;;;;;5000221;28;20822;-69
2021/09/06 03:24:52;;;;;;;9.97;7.37;;;19.30;98.90;;;;;;5024640;28;20471;-70
2021/09/06 03:27:18;;;;;;;11.17;7.83;;;19.20;98.90;;;;;;5018241;28;20219;-69
2021/09/06 03:29:43;;;;;;;11.40;7.60;;;19.20;98.80;;;;;;4990439;28;20205;-69
2021/09/06 03:32:11;;;;;;;10.77;7.10;;;19.20;98.90;;;;;;4987904;28;20219;-71
2021/09/06 03:34:38;;;;;;;10.33;7.90;;;19.20;98.80;;;;;;4990561;28;20595;-69
2021/09/06 03:37:06;;;;;;;11.23;7.77;;;19.10;98.80;;;;;;4989639;28;20453;-69
2021/09/06 03:39:32;;;;;;;11.27;7.30;;;19.10;98.80;;;;;;5005740;28;20460;-70
2021/09/06 03:41:59;;;;;;;10.23;7.63;;;19.10;98.90;;;;;;4987130;28;21012;-70
2021/09/06 03:44:29;;;;;;;10.20;7.53;;;19.10;98.90;;;;;;4990593;28;20910;-69
2021/09/06 03:46:55;;;;;;;9.30;7.47;;;19.10;98.90;;;;;;5004518;28;20594;-70
2021/09/06 03:49:22;;;;;;;9.73;7.07;;;19.00;98.90;;;;;;4988179;28;20695;-69
2021/09/06 03:51:48;;;;;;;9.90;7.60;;;19.00;99.00;;;;;;4981924;28;20459;-70
2021/09/06 03:54:17;;;;;;;9.63;7.47;;;19.00;99.00;;;;;;4990310;28;20456;-69
2021/09/06 03:56:43;;;;;;;12.33;7.40;;;18.90;99.00;;;;;;5018980;28;20466;-69
2021/09/06 03:59:09;;;;;;;10.17;6.90;;;19.00;99.00;;;;;;5003946;28;20227;-69
2021/09/06 04:01:34;;;;;;;7.87;6.40;;;18.90;99.00;;;;;;4989738;28;20217;-70
2021/09/06 04:04:00;;;;;;;8.57;6.37;;;18.70;99.10;;;;;;4988256;28;20229;-70
2021/09/06 04:06:26;;;;;;;9.70;7.00;;;18.70;99.30;;;;;;5005661;28;20213;-70
2021/09/06 04:08:52;;;;;;;8.00;6.60;;;18.70;99.20;;;;;;5004245;28;20213;-71
2021/09/06 04:11:18;;;;;;;8.80;7.00;;;18.70;99.20;;;;;;4989560;28;20564;-69
2021/09/06 04:13:44;;;;;;;10.93;7.17;;;18.70;99.20;;;;;;4989119;28;20213;-69
2021/09/06 04:16:10;;;;;;;9.67;7.60;;;18.70;99.10;;;;;;4987779;28;20291;-69
2021/09/06 04:18:37;;;;;;;10.43;8.03;;;18.70;99.10;;;;;;4990172;28;20456;-70
2021/09/06 04:21:04;;;;;;;10.63;7.63;;;18.70;99.10;;;;;;4987740;28;20467;-69
2021/09/06 04:23:32;;;;;;;12.93;7.50;;;18.70;99.10;;;;;;4989739;28;20300;-69
2021/09/06 04:26:01;;;;;;;10.63;7.60;;;18.70;99.10;;;;;;4988183;28;20478;-70
2021/09/06 04:28:30;;;;;;;10.33;7.47;;;18.70;99.10;;;;;;5006066;28;20579;-70
2021/09/06 04:30:57;;;;;;;10.37;7.67;;;18.70;99.10;;;;;;5003242;28;20461;-70
2021/09/06 04:33:30;;;;;;;10.03;7.80;;;18.60;99.20;;;;;;4997549;28;20468;-69
2021/09/06 04:35:57;;;;;;;9.93;6.87;;;18.60;99.20;;;;;;4988247;28;20504;-70
2021/09/06 04:38:25;;;;;;;11.70;7.07;;;18.60;99.20;;;;;;4999577;28;20452;-69
2021/09/06 04:40:50;;;;;;;9.80;6.83;;;18.60;99.20;;;;;;4991643;28;20463;-70
2021/09/06 04:43:16;;;;;;;10.37;7.63;;;18.60;99.20;;;;;;4989025;28;20228;-69
2021/09/06 04:45:42;;;;;;;10.50;7.40;;;18.60;99.30;;;;;;4989633;28;20468;-69
2021/09/06 04:48:09;;;;;;;10.20;8.77;;;18.60;99.30;;;;;;4986649;28;20311;-69
2021/09/06 04:50:35;;;;;;;10.27;7.60;;;18.50;99.40;;;;;;4989202;28;20970;-70
2021/09/06 04:53:01;;;;;;;11.00;8.23;;;18.40;99.50;;;;;;5003332;28;20233;-70
2021/09/06 04:55:27;;;;;;;13.20;8.87;;;18.40;99.40;;;;;;4989844;28;20351;-70
2021/09/06 04:57:52;;;;;;;12.23;7.80;;;18.40;99.50;;;;;;4987275;28;20363;-70
2021/09/06 05:00:18;;;;;;;10.37;8.00;;;18.40;99.50;;;;;;4988807;28;20300;-70
2021/09/06 05:02:44;;;;;;;10.10;8.07;;;18.40;99.60;;;;;;4988563;28;20228;-69
2021/09/06 05:05:11;;;;;;;13.63;7.20;;;18.30;99.60;;;;;;4986837;28;20471;-69
2021/09/06 05:07:37;;;;;;;8.53;7.00;;;18.30;99.60;;;;;;4998175;28;20547;-69
2021/09/06 05:10:04;;;;;;;12.40;8.80;;;18.30;99.70;;;;;;4987355;28;20452;-70
2021/09/06 05:12:32;;;;;;;10.07;7.77;;;18.20;99.60;;;;;;4991414;28;20487;-69
2021/09/06 05:14:59;;;;;;;10.87;8.13;;;18.30;99.70;;;;;;4990480;28;20460;-69
2021/09/06 05:17:24;;;;;;;10.47;7.23;;;18.30;99.70;;;;;;4992642;28;20455;-70
2021/09/06 05:19:52;;;;;;;14.87;8.70;;;18.30;99.60;;;;;;4990291;28;20296;-69
2021/09/06 05:22:18;;;;;;;11.43;8.30;;;18.30;99.70;;;;;;4983550;28;20547;-71
2021/09/06 05:24:44;;;;;;;15.40;8.10;;;18.30;99.70;;;;;;5003781;28;20293;-70
2021/09/06 05:27:09;;;;;;;13.30;7.03;;;18.30;99.70;;;;;;5014219;28;20523;-69
2021/09/06 05:29:35;;;;;;;10.70;7.93;;;18.20;99.60;;;;;;4992574;28;20284;-69
2021/09/06 05:32:02;;;;;;;9.20;7.60;;;18.20;99.60;;;;;;4986950;28;20236;-69
2021/09/06 05:34:28;;;;;;;11.00;8.07;;;18.20;99.70;;;;;;4993486;28;21244;-69
2021/09/06 05:36:53;;;;;;;12.97;8.47;;;18.20;99.70;;;;;;4990224;28;20217;-69
2021/09/06 05:39:20;;;;;;;11.43;8.23;;;18.20;99.70;;;;;;4991424;28;20304;-69
2021/09/06 05:41:57;;;;;;;9.90;7.30;;;18.20;99.70;;;;;;5003292;28;20248;-70
2021/09/06 05:44:23;;;;;;;10.97;7.63;;;18.20;99.80;;;;;;5007646;28;20500;-69
2021/09/06 05:46:49;;;;;;;10.60;7.20;;;18.20;99.80;;;;;;5005628;28;20271;-70
2021/09/06 05:49:15;;;;;;;9.87;7.53;;;18.20;99.70;;;;;;4990782;28;20821;-69
2021/09/06 05:51:44;;;;;;;14.67;8.03;;;18.20;99.90;;;;;;4998239;28;20212;-69
2021/09/06 05:54:17;;;;;;;9.10;7.30;;;18.20;99.80;;;;;;4992454;28;20465;-69
2021/09/06 05:56:43;;;;;;;12.17;8.27;;;18.20;99.90;;;;;;5008184;28;20539;-69
2021/09/06 05:59:09;;;;;;;10.90;8.40;;;18.20;99.90;;;;;;5007200;28;20217;-69
2021/09/06 06:01:36;;;;;;;10.50;9.10;;;18.20;99.90;;;;;;4995881;28;20286;-69
2021/09/06 06:04:02;;;;;;;13.90;8.90;;;18.20;99.90;;;;;;4989829;28;20459;-69
2021/09/06 06:06:33;;;;;;;10.17;7.90;;;18.20;99.90;;;;;;4991807;28;20448;-68
2021/09/06 06:09:01;;;;;;;12.43;8.73;;;18.20;99.90;;;;;;5004868;28;20471;-69
2021/09/06 06:11:27;;;;;;;13.43;9.30;;;18.20;99.90;;;;;;4994249;28;20459;-69
2021/09/06 06:13:53;;;;;;;11.43;9.00;;;18.20;99.90;;;;;;5000083;28;20229;-70
2021/09/06 06:16:20;;;;;;;15.57;9.67;;;18.20;99.90;;;;;;4989470;28;20639;-70
2021/09/06 06:18:46;;;;;;;12.57;9.53;;;18.20;99.90;;;;;;5006143;28;20996;-70
2021/09/06 06:21:14;;;;;;;12.57;9.73;;;18.20;99.90;;;;;;4990121;28;20720;-69
2021/09/06 06:24:08;;;;;;;11.80;9.40;;;18.20;99.90;;;;;;5001380;28;20456;-69
2021/09/06 06:26:41;;;;;;;11.20;8.13;;;18.20;99.90;;;;;;4990058;28;21045;-70
2021/09/06 06:29:09;;;;;;;11.70;9.60;;;18.20;99.90;;;;;;5002365;28;21053;-70
2021/09/06 06:31:35;;;;;;;11.63;9.40;;;18.20;99.90;;;;;;5005994;28;20526;-70
2021/09/06 06:34:02;;;;;;;13.10;10.10;;;18.20;99.90;;;;;;5004844;28;20514;-69
2021/09/06 06:36:32;;;;;;;12.60;9.57;;;18.20;99.90;;;;;;4989455;28;20452;-71
2021/09/06 06:38:57;;;;;;;14.80;11.07;;;18.30;99.90;;;;;;5001058;28;20459;-69
2021/09/06 06:41:23;;;;;;;14.90;10.27;;;18.30;99.90;;;;;;5005530;28;20221;-69
2021/09/06 06:43:54;;;;;;;17.03;10.67;;;18.30;99.90;;;;;;4987040;28;20279;-70
2021/09/06 06:46:19;;;;;;;14.90;10.30;;;18.30;99.90;;;;;;4987838;28;20480;-70
2021/09/06 06:48:48;;;;;;;14.27;10.17;;;18.30;99.90;;;;;;5002306;28;20228;-70
2021/09/06 06:51:15;;;;;;;13.60;10.00;;;18.30;99.90;;;;;;4985860;28;20467;-69
2021/09/06 06:53:43;;;;;;;14.03;9.97;;;18.40;99.90;;;;;;4987989;28;20977;-70
2021/09/06 06:56:11;;;;;;;13.17;9.10;;;18.40;99.90;;;;;;5002272;28;20456;-69
2021/09/06 06:58:36;;;;;;;13.83;9.53;;;18.40;99.90;;;;;;4985677;28;20473;-69
2021/09/06 07:01:07;;;;;;;13.30;8.50;;;18.40;99.90;;;;;;4997021;28;20979;-70
2021/09/06 07:03:33;;;;;;;10.30;8.47;;;18.40;99.90;;;;;;5013636;28;20524;-69
2021/09/06 07:05:59;;;;;;;10.37;7.37;;;18.50;99.90;;;;;;4992235;28;20225;-70
2021/09/06 07:08:24;;;;;;;11.00;8.00;;;18.50;99.90;;;;;;4986548;28;20452;-70
2021/09/06 07:10:50;;;;;;;12.23;8.77;;;18.50;99.90;;;;;;4984301;28;20221;-69
2021/09/06 07:13:17;;;;;;;10.40;7.43;;;18.50;99.90;;;;;;4987483;28;20236;-70
2021/09/06 07:15:42;;;;;;;11.73;7.97;;;18.50;99.90;;;;;;4987420;28;20473;-69
2021/09/06 07:18:11;;;;;;;10.27;7.40;;;18.60;99.90;;;;;;4985700;28;20217;-69
2021/09/06 07:20:37;;;;;;;9.77;7.50;;;18.60;99.90;;;;;;4986158;28;20514;-69
2021/09/06 07:23:03;;;;;;;11.33;8.27;;;18.60;99.90;;;;;;4985892;28;20225;-70
2021/09/06 07:25:29;;;;;;;12.70;8.30;;;18.60;99.90;;;;;;5005929;28;20475;-70
2021/09/06 07:27:55;;;;;;;10.67;8.03;;;18.60;99.90;;;;;;4981074;28;20471;-70
2021/09/06 07:30:21;;;;;;;8.60;7.40;;;18.70;99.90;;;;;;5002302;28;20213;-70
2021/09/06 07:32:48;;;;;;;13.00;9.33;;;18.70;99.90;;;;;;5002871;28;20284;-69
2021/09/06 07:35:14;;;;;;;11.13;7.20;;;18.80;99.90;;;;;;5003327;28;20328;-69
2021/09/06 07:37:41;;;;;;;10.30;7.77;;;18.80;99.90;;;;;;4986756;28;20452;-69
2021/09/06 07:40:12;;;;;;;12.83;8.30;;;18.90;99.90;;;;;;4982807;28;20454;-69
2021/09/06 07:42:44;;;;;;;11.20;8.80;;;18.90;99.90;;;;;;5019022;28;20472;-70
2021/09/06 07:45:10;;;;;;;9.67;7.10;;;19.00;99.90;;;;;;4984131;28;20559;-70
2021/09/06 07:47:37;;;;;;;11.20;8.23;;;19.10;99.90;;;;;;5002047;28;20457;-68
2021/09/06 07:50:05;;;;;;;11.30;8.90;;;19.20;99.90;;;;;;4984920;28;20464;-70
2021/09/06 07:52:31;;;;;;;12.40;9.07;;;19.30;99.90;;;;;;4986057;28;20498;-70
2021/09/06 07:54:57;;;;;;;11.20;8.70;;;19.40;99.90;;;;;;4984014;28;20479;-70
2021/09/06 07:57:22;;;;;;;12.97;8.50;;;19.60;99.90;;;;;;4987697;28;20213;-70
2021/09/06 07:59:49;;;;;;;10.90;8.53;;;19.70;99.90;;;;;;4985040;28;20221;-70
2021/09/06 08:02:14;;;;;;;11.13;9.00;;;19.80;99.90;;;;;;4976999;28;20479;-70
2021/09/06 08:04:46;;;;;;;11.43;8.40;;;19.90;99.90;;;;;;4996936;28;20229;-70
2021/09/06 08:07:12;;;;;;;13.17;8.67;;;20.00;99.90;;;;;;4984055;28;20500;-70
2021/09/06 08:09:37;;;;;;;13.90;8.80;;;20.10;99.90;;;;;;4985004;28;20616;-70
2021/09/06 08:12:04;;;;;;;11.40;8.43;;;20.10;99.90;;;;;;4983468;28;20224;-70
2021/09/06 08:14:30;;;;;;;12.13;8.73;;;20.10;99.90;;;;;;4984396;28;20217;-69
2021/09/06 08:16:55;;;;;;;12.67;8.53;;;20.20;99.90;;;;;;4982885;28;20456;-70
2021/09/06 08:19:21;;;;;;;13.20;8.93;;;20.20;99.90;;;;;;4985846;28;20695;-70
2021/09/06 08:21:48;;;;;;;9.93;8.70;;;20.30;99.90;;;;;;4989457;28;20251;-70
2021/09/06 08:24:15;;;;;;;13.23;9.30;;;20.40;99.90;;;;;;4986715;28;20468;-70
2021/09/06 08:26:41;;;;;;;12.13;8.17;;;20.50;99.90;;;;;;4967441;28;20491;-70
2021/09/06 08:29:09;;;;;;;11.93;9.40;;;20.60;99.90;;;;;;5005087;28;20295;-69
2021/09/06 08:31:35;;;;;;;12.73;9.27;;;20.80;99.90;;;;;;5001618;28;20460;-70
2021/09/06 08:34:01;;;;;;;11.03;9.03;;;20.90;99.90;;;;;;4984541;28;20548;-69
2021/09/06 08:36:27;;;;;;;12.10;8.90;;;21.00;99.90;;;;;;4972936;28;20463;-70
2021/09/06 08:38:53;;;;;;;11.50;8.33;;;21.00;99.90;;;;;;4983975;28;20813;-70
2021/09/06 08:41:19;;;;;;;9.63;8.57;;;21.10;99.90;;;;;;4985762;28;20221;-69
2021/09/06 08:43:46;;;;;;;12.93;9.37;;;21.20;99.90;;;;;;4982774;28;20476;-69
2021/09/06 08:46:23;;;;;;;12.50;10.20;;;21.40;99.90;;;;;;4991150;28;20472;-69
2021/09/06 08:48:50;;;;;;;16.60;9.60;;;21.50;99.90;;;;;;4986596;28;20514;-71
2021/09/06 08:51:17;;;;;;;12.83;10.37;;;21.60;99.90;;;;;;4989332;28;20468;-69
2021/09/06 08:53:42;;;;;;;13.13;9.87;;;21.70;99.90;;;;;;4988100;28;20221;-70
2021/09/06 08:56:09;;;;;;;13.00;9.97;;;21.70;99.90;;;;;;4985085;28;20510;-69
2021/09/06 08:58:36;;;;;;;12.47;9.07;;;21.90;99.90;;;;;;5004998;28;20467;-69
2021/09/06 09:01:02;;;;;;;11.43;8.70;;;22.00;99.90;;;;;;5003398;28;20550;-69
2021/09/06 09:03:35;;;;;;;15.60;10.03;;;22.10;99.90;;;;;;4990596;28;20875;-70
2021/09/06 09:06:16;;;;;;;10.30;8.73;;;22.20;99.90;;;;;;5004661;28;20530;-70
2021/09/06 09:09:04;;;;;;;14.80;11.43;;;22.30;99.90;;;;;;4990561;28;20459;-70
2021/09/06 09:11:59;;;;;;;11.60;9.73;;;22.40;99.90;;;;;;4976101;28;20459;-69
2021/09/06 09:14:52;;;;;;;11.10;8.40;;;22.40;99.90;;;;;;4991054;28;20459;-70
2021/09/06 09:17:27;;;;;;;10.43;8.40;;;22.50;99.90;;;;;;4990815;28;20463;-70
2021/09/06 09:20:16;;;;;;;9.77;8.70;;;22.60;99.90;;;;;;5002553;28;20474;-69
2021/09/06 09:23:10;;;;;;;11.40;8.90;;;22.70;99.90;;;;;;5007433;28;20471;-70
2021/09/06 09:25:44;;;;;;;12.00;10.03;;;22.90;99.90;;;;;;5006755;28;20885;-70
2021/09/06 09:28:39;;;;;;;10.40;9.30;;;22.90;99.90;;;;;;5001654;28;20493;-70
2021/09/06 09:31:48;;;;;;;12.73;9.63;;;23.00;99.90;;;;;;4992727;28;20502;-70
2021/09/06 09:34:43;;;;;;;20.53;10.70;;;23.00;99.90;;;;;;5004795;28;20488;-70
2021/09/06 09:37:28;;;;;;;11.63;9.10;;;23.10;99.90;;;;;;4987208;28;20458;-70
2021/09/06 09:39:57;;;;;;;10.70;8.90;;;23.20;99.90;;;;;;4985014;28;20529;-70
2021/09/06 09:42:28;;;;;;;11.37;10.13;;;23.40;99.90;;;;;;4986567;28;20868;-70
2021/09/06 09:44:56;;;;;;;11.50;9.67;;;23.60;99.90;;;;;;4977610;28;20530;-70
2021/09/06 09:47:53;;;;;;;12.27;9.20;;;23.70;99.90;;;;;;5002547;28;20466;-70
2021/09/06 09:50:22;;;;;;;11.00;9.67;;;23.70;99.90;;;;;;5004787;28;20451;-69
2021/09/06 09:52:50;;;;;;;11.20;10.00;;;23.80;99.90;;;;;;4999566;28;20988;-71
2021/09/06 09:55:16;;;;;;;12.27;9.87;;;23.90;99.90;;;;;;4987348;28;20486;-70
2021/09/06 09:57:43;;;;;;;11.83;9.07;;;24.00;99.90;;;;;;5002641;28;20509;-70
2021/09/06 10:00:10;;;;;;;12.80;9.47;;;24.20;99.90;;;;;;4986148;28;20855;-71
2021/09/06 10:02:43;;;;;;;19.43;10.70;;;24.30;99.90;;;;;;4999341;28;20471;-70
2021/09/06 10:05:11;;;;;;;13.53;9.40;;;24.40;99.90;;;;;;4988779;28;20467;-69
2021/09/06 10:07:42;;;;;;;11.80;9.47;;;24.50;99.90;;;;;;5004441;28;20513;-69
2021/09/06 10:10:19;;;;;;;14.17;10.20;;;24.60;99.90;;;;;;4985384;28;20451;-70
2021/09/06 10:12:47;;;;;;;11.03;9.80;;;24.60;99.90;;;;;;4983713;28;21033;-71
2021/09/06 10:15:14;;;;;;;9.80;8.50;;;24.50;99.90;;;;;;5002976;28;20499;-71
2021/09/06 10:17:51;;;;;;;9.77;8.77;;;24.60;99.90;;;;;;5006522;28;20475;-70
2021/09/06 10:20:17;;;;;;;11.67;9.27;;;24.70;99.90;;;;;;4986226;28;20464;-70
2021/09/06 10:22:45;;;;;;;12.00;9.20;;;24.90;99.90;;;;;;5001422;28;20476;-70
2021/09/06 10:25:18;;;;;;;11.50;8.27;;;25.00;99.90;;;;;;5000518;28;20475;-70
2021/09/06 10:27:54;;;;;;;9.10;8.20;;;25.10;99.90;;;;;;4999198;28;20448;-70
2021/09/06 10:30:33;;;;;;;11.10;8.70;;;25.20;99.90;;;;;;4988731;28;20885;-70
2021/09/06 10:32:59;;;;;;;11.03;9.70;;;25.20;99.90;;;;;;4984167;28;20472;-70
2021/09/06 10:35:28;;;;;;;8.53;7.63;;;25.40;99.90;;;;;;4989367;28;20456;-70
2021/09/06 10:38:12;;;;;;;14.60;9.10;;;25.50;99.90;;;;;;5000649;28;20460;-70
2021/09/06 10:40:41;;;;;;;9.63;8.63;;;25.60;99.90;;;;;;5021205;28;20468;-70
2021/09/06 10:43:19;;;;;;;11.53;8.57;;;25.80;99.90;;;;;;4983695;28;20480;-70
2021/09/06 10:45:52;;;;;;;10.83;9.00;;;25.90;99.90;;;;;;4982154;28;20556;-71
2021/09/06 10:48:22;;;;;;;11.20;8.67;;;26.10;99.80;;;;;;4989051;28;20603;-70
2021/09/06 10:50:49;;;;;;;10.60;8.80;;;26.20;99.60;;;;;;4986993;28;20491;-71
2021/09/06 10:53:26;;;;;;;10.47;9.33;;;26.30;99.50;;;;;;5006072;28;20463;-70
2021/09/06 10:55:56;;;;;;;10.70;8.43;;;26.30;99.20;;;;;;5002159;28;20470;-70
2021/09/06 10:58:24;;;;;;;9.47;8.47;;;26.40;99.60;;;;;;5011582;28;20519;-70
2021/09/06 11:00:57;;;;;;;9.47;8.47;;;26.50;99.50;;;;;;5000602;28;20464;-70
2021/09/06 11:03:25;;;;;;;15.40;8.80;;;26.70;98.90;;;;;;5003848;28;20467;-70
2021/09/06 11:05:56;;;;;;;10.30;8.97;;;26.90;98.70;;;;;;4984950;28;20482;-70
2021/09/06 11:08:24;;;;;;;10.87;8.30;;;27.00;98.60;;;;;;4996103;28;20457;-69
2021/09/06 11:10:51;;;;;;;9.43;8.43;;;27.20;98.40;;;;;;5001758;28;20529;-71
2021/09/06 11:13:17;;;;;;;11.18;9.35;;;27.20;98.40;;;;;;4984407;28;20538;-70
2021/09/06 11:15:42;;;;;;;9.52;8.38;;;27.30;97.90;;;;;;4984477;28;20714;-70
2021/09/06 11:18:09;;;;;;;11.10;8.27;;;27.50;97.90;;;;;;4984667;28;20275;-71
2021/09/06 11:20:38;;;;;;;9.43;8.43;;;27.50;97.70;;;;;;5003494;28;20221;-70
2021/09/06 11:23:09;;;;;;;9.90;8.37;;;27.50;97.60;;;;;;4976418;28;20627;-70
2021/09/06 11:25:41;;;;;;;9.38;8.15;;;27.60;97.20;;;;;;4987313;28;20562;-69
2021/09/06 11:28:12;;;;;;;14.20;9.37;;;27.70;97.20;;;;;;4998889;28;20216;-70
2021/09/06 11:30:44;;;;;;;8.17;7.33;;;27.50;96.90;;;;;;4986489;28;20220;-70
2021/09/06 11:33:11;;;;;;;8.77;7.87;;;27.40;97.30;;;;;;5000433;28;20232;-71
2021/09/06 11:35:42;;;;;;;9.80;8.23;;;27.50;97.40;;;;;;5003094;28;20464;-70
2021/09/06 11:38:09;;;;;;;11.60;9.38;;;27.60;97.40;;;;;;4996439;28;20883;-69
2021/09/06 11:40:35;;;;;;;9.55;8.55;;;27.80;96.90;;;;;;5018936;28;20217;-70
2021/09/06 11:43:04;;;;;;;10.52;8.75;;;28.00;96.00;;;;;;4984808;28;20264;-71
2021/09/06 11:45:30;;;;;;;9.90;8.30;;;28.20;95.90;;;;;;5002884;28;20631;-70
2021/09/06 11:48:01;;;;;;;13.27;8.77;;;28.20;96.20;;;;;;4984039;28;20213;-71
2021/09/06 11:50:33;;;;;;;8.43;7.47;;;28.30;96.10;;;;;;5002539;28;20283;-70
2021/09/06 11:53:05;;;;;;;9.10;8.25;;;28.50;95.70;;;;;;5001092;28;20316;-70
2021/09/06 11:55:31;;;;;;;9.48;7.57;;;28.60;95.40;;;;;;5002645;28;20225;-71
2021/09/06 11:58:11;;;;;;;8.10;7.30;;;28.60;95.10;;;;;;4997649;28;20306;-70
2021/09/06 12:00:41;;;;;;;7.93;7.13;;;28.70;93.90;;;;;;4991665;28;20220;-70
2021/09/06 12:03:08;;;;;;;8.57;7.75;;;28.80;94.10;;;;;;5000234;28;20279;-70
2021/09/06 12:05:50;;;;;;;8.35;7.10;;;28.80;93.50;;;;;;4985015;28;20289;-70
2021/09/06 12:08:16;;;;;;;10.73;8.43;;;29.00;93.90;;;;;;5002168;28;20222;-71
2021/09/06 12:10:45;;;;;;;7.95;7.15;;;29.10;93.20;;;;;;5004367;28;20235;-69
2021/09/06 12:13:19;;;;;;;8.45;7.60;;;29.10;92.90;;;;;;4999027;28;20228;-70
2021/09/06 12:16:11;;;;;;;9.80;7.22;;;29.10;92.90;;;;;;4986702;28;20215;-70
2021/09/06 12:18:39;;;;;;;7.45;6.75;;;29.10;93.30;;;;;;4986788;28;20240;-70
2021/09/06 12:21:10;;;;;;;8.07;7.13;;;29.10;93.30;;;;;;5012549;28;20262;-71
2021/09/06 12:23:38;;;;;;;9.00;7.88;;;29.10;93.00;;;;;;5006925;28;20227;-71
2021/09/06 12:26:05;;;;;;;8.75;6.75;;;29.10;92.70;;;;;;5004660;28;20236;-70
2021/09/06 12:28:31;;;;;;;7.90;7.13;;;29.00;92.50;;;;;;4990535;28;20224;-70
2021/09/06 12:30:58;;;;;;;7.18;6.45;;;29.00;92.60;;;;;;4987189;28;20458;-71
2021/09/06 12:33:24;;;;;;;6.50;5.93;;;29.00;92.50;;;;;;5005580;28;20228;-71
2021/09/06 12:35:50;;;;;;;7.82;7.05;;;28.90;91.70;;;;;;4988478;28;20222;-70
2021/09/06 12:38:16;;;;;;;7.40;6.70;;;28.90;92.60;;;;;;5006469;28;20216;-70
2021/09/06 12:40:42;;;;;;;6.95;6.25;;;29.00;92.80;;;;;;4985405;28;20658;-69
2021/09/06 12:43:07;;;;;;;8.48;6.82;;;29.20;91.80;;;;;;5003343;28;20237;-71
2021/09/06 12:45:33;;;;;;;8.20;7.47;;;29.30;91.70;;;;;;4988934;28;20232;-70
2021/09/06 12:47:59;;;;;;;8.07;7.28;;;29.50;91.90;;;;;;5003393;28;20220;-70